Time;durP1;ratioP1;P1;durP2;ratioP2;P2;SDS_P1;SDS_P2;PMS_P1;PMS_P2;Temp;Humidity;BMP_temperature;BMP_pressure;BME280_temperature;BME280_humidity;BME280_pressure;Samples;Min_cycle;Max_cycle;Signal;HPM_P1;HPM_P2
2022/05/30 00:00:07;;;;;;;;;;;;;;;;;;348485;28;929;-80
2022/05/30 00:00:18;;;;;;;;;;;;;;;;;;348466;28;833;-80
2022/05/30 00:00:29;;;;;;;;;;;;;;;;;;348554;28;1049;-80
2022/05/30 00:00:39;;;;;;;;;;;;;;;;;;348408;28;1007;-80
2022/05/30 00:00:50;;;;;;;;;;;;;;;;;;348504;28;983;-80
2022/05/30 00:01:04;;;;;;;;;;;;;;;;;;348509;28;933;-81
2022/05/30 00:01:20;;;;;;;;;;;;;;;;;;348462;28;933;-80
2022/05/30 00:01:30;;;;;;;;;;;;;;;;;;348513;28;782;-80
2022/05/30 00:01:40;;;;;;;;;;;;;;;;;;348587;28;786;-80
2022/05/30 00:01:50;;;;;;;;;;;;;;;;;;348485;28;925;-80
2022/05/30 00:02:01;;;;;;;;;;;;;;;;;;348502;28;980;-80
2022/05/30 00:02:12;;;;;;;;;;;;;;;;;;348529;28;1136;-80
2022/05/30 00:02:22;;;;;;;;;;;;;;;;;;348464;28;901;-80
2022/05/30 00:02:32;;;;;;;;;;;;;;;;;;348558;28;968;-80
2022/05/30 00:02:43;;;;;;;;;;;;;;;;;;348498;28;937;-81
2022/05/30 00:02:53;;;;;;;;;;;;;;;;;;348717;28;1371;-80
2022/05/30 00:03:04;;;;;;;;;;;;;;;;;;349881;28;1005;-80
2022/05/30 00:03:14;;;;;;;;;;;;;;;;;;349916;28;885;-80
2022/05/30 00:03:24;;;;;;;;;;;;;;;;;;349824;28;929;-80
2022/05/30 00:03:35;;;;;;;;;;;;;;;;;;349908;28;881;-80
2022/05/30 00:03:45;;;;;;;;;;;;;;;;;;349202;28;1756;-80
2022/05/30 00:03:56;;;;;;;;;;;;;;;;;;348353;28;1876;-80
2022/05/30 00:04:06;;;;;;;;;;;;;;;;;;348527;28;945;-80
2022/05/30 00:04:16;;;;;;;;;;;;;;;;;;348383;28;1009;-80
2022/05/30 00:04:26;;;;;;;;;;;;;;;;;;348505;28;786;-80
2022/05/30 00:04:37;;;;;;;;;;;;;;;;;;348578;28;1004;-80
2022/05/30 00:04:48;;;;;;;;;;;;;;;;;;348393;28;1761;-80
2022/05/30 00:04:58;;;;;;;;;;;;;;;;;;348521;28;912;-80
2022/05/30 00:05:11;;;;;;;;;;;;;;;;;;348520;28;1096;-80
2022/05/30 00:05:23;;;;;;;;;;;;;;;;;;348526;28;853;-80
2022/05/30 00:05:33;;;;;;;;;;;;;;;;;;348465;28;1034;-80
2022/05/30 00:05:46;;;;;;;;;;;;;;;;;;348523;28;947;-80
2022/05/30 00:05:56;;;;;;;;;;;;;;;;;;348519;28;936;-80
2022/05/30 00:06:12;;;;;;;;;;;;;;;;;;348521;28;1051;-80
2022/05/30 00:06:23;;;;;;;;;;;;;;;;;;348432;28;1210;-80
2022/05/30 00:06:33;;;;;;;;;;;;;;;;;;348516;28;797;-80
2022/05/30 00:06:43;;;;;;;;;;;;;;;;;;348571;28;1011;-80
2022/05/30 00:06:53;;;;;;;;;;;;;;;;;;348515;28;841;-80
2022/05/30 00:07:05;;;;;;;;;;;;;;;;;;348494;28;975;-80
2022/05/30 00:07:15;;;;;;;;;;;;;;;;;;348532;28;832;-80
2022/05/30 00:07:25;;;;;;;;;;;;;;;;;;348994;28;1363;-80
2022/05/30 00:07:36;;;;;;;;;;;;;;;;;;349836;28;1279;-80
2022/05/30 00:07:46;;;;;;;;;;;;;;;;;;349943;28;853;-80
2022/05/30 00:07:57;;;;;;;;;;;;;;;;;;349868;28;944;-80
2022/05/30 00:08:08;;;;;;;;;;;;;;;;;;349898;28;920;-80
2022/05/30 00:08:18;;;;;;;;;;;;;;;;;;349908;28;972;-80
2022/05/30 00:08:29;;;;;;;;;;;;;;;;;;349894;28;848;-80
2022/05/30 00:08:39;;;;;;;;;;;;;;;;;;349935;28;821;-80
2022/05/30 00:08:50;;;;;;;;;;;;;;;;;;349921;28;956;-80
2022/05/30 00:09:00;;;;;;;;;;;;;;;;;;349886;28;929;-80
2022/05/30 00:09:13;;;;;;;;;;;;;;;;;;349878;28;802;-80
2022/05/30 00:09:23;;;;;;;;;;;;;;;;;;349906;28;842;-80
2022/05/30 00:09:34;;;;;;;;;;;;;;;;;;349930;28;917;-80
2022/05/30 00:09:47;;;;;;;;;;;;;;;;;;349884;28;1043;-80
2022/05/30 00:09:57;;;;;;;;;;;;;;;;;;349867;28;956;-80
2022/05/30 00:10:08;;;;;;;;;;;;;;;;;;349935;28;930;-80
2022/05/30 00:10:20;;;;;;;;;;;;;;;;;;349900;28;932;-80
2022/05/30 00:10:30;;;;;;;;;;;;;;;;;;349880;28;861;-80
2022/05/30 00:10:40;;;;;;;;;;;;;;;;;;349931;28;920;-80
2022/05/30 00:10:50;;;;;;;;;;;;;;;;;;349973;28;1004;-80
2022/05/30 00:11:02;;;;;;;;;;;;;;;;;;349872;28;1085;-80
2022/05/30 00:11:13;;;;;;;;;;;;;;;;;;349832;28;862;-80
2022/05/30 00:11:25;;;;;;;;;;;;;;;;;;349955;28;920;-80
2022/05/30 00:11:36;;;;;;;;;;;;;;;;;;349907;28;952;-81
2022/05/30 00:11:48;;;;;;;;;;;;;;;;;;349882;28;937;-80
2022/05/30 00:11:58;;;;;;;;;;;;;;;;;;349974;28;829;-80
2022/05/30 00:12:08;;;;;;;;;;;;;;;;;;349890;28;988;-80
2022/05/30 00:12:18;;;;;;;;;;;;;;;;;;349864;28;831;-80
2022/05/30 00:12:29;;;;;;;;;;;;;;;;;;349966;28;904;-80
2022/05/30 00:12:39;;;;;;;;;;;;;;;;;;349921;28;916;-80
2022/05/30 00:12:49;;;;;;;;;;;;;;;;;;348754;28;1808;-80
2022/05/30 00:12:59;;;;;;;;;;;;;;;;;;349856;28;921;-80
2022/05/30 00:13:10;;;;;;;;;;;;;;;;;;349895;28;1050;-80
2022/05/30 00:13:20;;;;;;;;;;;;;;;;;;349911;28;975;-80
2022/05/30 00:13:31;;;;;;;;;;;;;;;;;;349910;28;805;-80
2022/05/30 00:13:41;;;;;;;;;;;;;;;;;;349899;28;992;-81
2022/05/30 00:13:51;;;;;;;;;;;;;;;;;;349921;28;1012;-80
2022/05/30 00:14:01;;;;;;;;;;;;;;;;;;349948;28;810;-80
2022/05/30 00:14:12;;;;;;;;;;;;;;;;;;349832;28;1120;-80
2022/05/30 00:14:22;;;;;;;;;;;;;;;;;;349960;28;790;-80
2022/05/30 00:14:33;;;;;;;;;;;;;;;;;;349833;28;1063;-80
2022/05/30 00:14:45;;;;;;;;;;;;;;;;;;349867;28;1004;-80
2022/05/30 00:14:55;;;;;;;;;;;;;;;;;;348216;28;1746;-80
2022/05/30 00:15:07;;;;;;;;;;;;;;;;;;348556;28;972;-80
2022/05/30 00:15:18;;;;;;;;;;;;;;;;;;348375;28;1146;-80
2022/05/30 00:15:29;;;;;;;;;;;;;;;;;;348322;28;994;-80
2022/05/30 00:15:39;;;;;;;;;;;;;;;;;;348523;28;838;-80
2022/05/30 00:15:50;;;;;;;;;;;;;;;;;;348523;28;865;-80
2022/05/30 00:16:04;;;;;;;;;;;;;;;;;;348527;28;917;-80
2022/05/30 00:16:17;;;;;;;;;;;;;;;;;;348099;28;1766;-81
2022/05/30 00:16:27;;;;;;;;;;;;;;;;;;348390;28;1531;-80
2022/05/30 00:16:37;;;;;;;;;;;;;;;;;;348497;28;941;-80
2022/05/30 00:16:47;;;;;;;;;;;;;;;;;;348527;28;1056;-80
2022/05/30 00:16:57;;;;;;;;;;;;;;;;;;348479;28;845;-80
2022/05/30 00:17:08;;;;;;;;;;;;;;;;;;348587;28;991;-80
2022/05/30 00:17:18;;;;;;;;;;;;;;;;;;348525;28;798;-80
2022/05/30 00:17:28;;;;;;;;;;;;;;;;;;348437;28;1027;-80
2022/05/30 00:17:38;;;;;;;;;;;;;;;;;;348517;28;940;-80
2022/05/30 00:17:52;;;;;;;;;;;;;;;;;;348552;28;890;-80
2022/05/30 00:18:03;;;;;;;;;;;;;;;;;;348270;28;1330;-80
2022/05/30 00:18:13;;;;;;;;;;;;;;;;;;348548;28;936;-79
2022/05/30 00:18:23;;;;;;;;;;;;;;;;;;348624;28;929;-80
2022/05/30 00:18:33;;;;;;;;;;;;;;;;;;348740;28;1737;-80
2022/05/30 00:18:44;;;;;;;;;;;;;;;;;;348544;28;813;-80
2022/05/30 00:18:55;;;;;;;;;;;;;;;;;;348568;28;964;-80
2022/05/30 00:19:05;;;;;;;;;;;;;;;;;;348498;28;1043;-80
2022/05/30 00:19:15;;;;;;;;;;;;;;;;;;348481;28;984;-80
2022/05/30 00:19:25;;;;;;;;;;;;;;;;;;348451;28;995;-80
2022/05/30 00:19:37;;;;;;;;;;;;;;;;;;348537;28;936;-80
2022/05/30 00:19:47;;;;;;;;;;;;;;;;;;348568;28;932;-80
2022/05/30 00:19:57;;;;;;;;;;;;;;;;;;348514;28;1091;-80
2022/05/30 00:20:08;;;;;;;;;;;;;;;;;;348526;28;988;-80
2022/05/30 00:20:19;;;;;;;;;;;;;;;;;;348506;28;853;-80
2022/05/30 00:20:29;;;;;;;;;;;;;;;;;;348524;28;1055;-80
2022/05/30 00:20:42;;;;;;;;;;;;;;;;;;348479;28;1045;-80
2022/05/30 00:20:52;;;;;;;;;;;;;;;;;;348572;28;920;-80
2022/05/30 00:21:03;;;;;;;;;;;;;;;;;;348553;28;924;-80
2022/05/30 00:21:16;;;;;;;;;;;;;;;;;;348480;28;912;-80
2022/05/30 00:21:26;;;;;;;;;;;;;;;;;;348483;28;1910;-80
2022/05/30 00:21:37;;;;;;;;;;;;;;;;;;348474;28;912;-80
2022/05/30 00:21:47;;;;;;;;;;;;;;;;;;348520;28;1027;-80
2022/05/30 00:21:57;;;;;;;;;;;;;;;;;;348478;28;1070;-80
2022/05/30 00:22:11;;;;;;;;;;;;;;;;;;348537;28;861;-80
2022/05/30 00:22:21;;;;;;;;;;;;;;;;;;348570;28;860;-80
2022/05/30 00:22:31;;;;;;;;;;;;;;;;;;348503;28;1017;-80
2022/05/30 00:22:42;;;;;;;;;;;;;;;;;;348536;28;1014;-80
2022/05/30 00:22:52;;;;;;;;;;;;;;;;;;348540;28;880;-80
2022/05/30 00:23:03;;;;;;;;;;;;;;;;;;348520;28;944;-80
2022/05/30 00:23:14;;;;;;;;;;;;;;;;;;348522;28;932;-80
2022/05/30 00:23:24;;;;;;;;;;;;;;;;;;348568;28;983;-80
2022/05/30 00:23:34;;;;;;;;;;;;;;;;;;348511;28;920;-80
2022/05/30 00:23:45;;;;;;;;;;;;;;;;;;348474;28;1005;-80
2022/05/30 00:23:55;;;;;;;;;;;;;;;;;;348452;28;983;-80
2022/05/30 00:24:05;;;;;;;;;;;;;;;;;;348578;28;920;-80
2022/05/30 00:24:15;;;;;;;;;;;;;;;;;;348566;28;864;-80
2022/05/30 00:24:26;;;;;;;;;;;;;;;;;;348550;28;908;-80
2022/05/30 00:24:36;;;;;;;;;;;;;;;;;;348130;28;1848;-80
2022/05/30 00:24:46;;;;;;;;;;;;;;;;;;348742;28;1363;-80
2022/05/30 00:24:56;;;;;;;;;;;;;;;;;;348552;28;835;-80
2022/05/30 00:25:07;;;;;;;;;;;;;;;;;;348539;28;956;-80
2022/05/30 00:25:17;;;;;;;;;;;;;;;;;;348540;28;937;-80
2022/05/30 00:25:27;;;;;;;;;;;;;;;;;;348579;28;908;-80
2022/05/30 00:25:41;;;;;;;;;;;;;;;;;;348456;28;1583;-80
2022/05/30 00:25:52;;;;;;;;;;;;;;;;;;348500;28;987;-80
2022/05/30 00:26:06;;;;;;;;;;;;;;;;;;348516;28;1011;-80
2022/05/30 00:26:16;;;;;;;;;;;;;;;;;;348572;28;975;-80
2022/05/30 00:26:26;;;;;;;;;;;;;;;;;;348524;28;924;-80
2022/05/30 00:26:37;;;;;;;;;;;;;;;;;;348569;28;1029;-80
2022/05/30 00:26:47;;;;;;;;;;;;;;;;;;348483;28;784;-80
2022/05/30 00:26:57;;;;;;;;;;;;;;;;;;348547;28;983;-80
2022/05/30 00:27:08;;;;;;;;;;;;;;;;;;348572;28;778;-80
2022/05/30 00:27:18;;;;;;;;;;;;;;;;;;348540;28;976;-80
2022/05/30 00:27:28;;;;;;;;;;;;;;;;;;348461;28;992;-80
2022/05/30 00:27:38;;;;;;;;;;;;;;;;;;348571;28;908;-80
2022/05/30 00:27:49;;;;;;;;;;;;;;;;;;348450;28;909;-80
2022/05/30 00:27:59;;;;;;;;;;;;;;;;;;348548;28;777;-80
2022/05/30 00:28:10;;;;;;;;;;;;;;;;;;348502;28;1075;-80
2022/05/30 00:28:20;;;;;;;;;;;;;;;;;;348467;28;968;-80
2022/05/30 00:28:31;;;;;;;;;;;;;;;;;;348569;28;829;-80
2022/05/30 00:28:41;;;;;;;;;;;;;;;;;;348505;28;993;-80
2022/05/30 00:28:52;;;;;;;;;;;;;;;;;;348482;28;1019;-80
2022/05/30 00:29:05;;;;;;;;;;;;;;;;;;348542;28;1088;-80
2022/05/30 00:29:15;;;;;;;;;;;;;;;;;;348574;28;809;-80
2022/05/30 00:29:26;;;;;;;;;;;;;;;;;;348505;28;940;-80
2022/05/30 00:29:37;;;;;;;;;;;;;;;;;;348523;28;995;-80
2022/05/30 00:29:47;;;;;;;;;;;;;;;;;;348546;28;944;-80
2022/05/30 00:29:58;;;;;;;;;;;;;;;;;;348418;28;1036;-81
2022/05/30 00:30:08;;;;;;;;;;;;;;;;;;348556;28;940;-81
2022/05/30 00:30:19;;;;;;;;;;;;;;;;;;348582;28;920;-80
2022/05/30 00:30:29;;;;;;;;;;;;;;;;;;348482;28;916;-80
2022/05/30 00:30:39;;;;;;;;;;;;;;;;;;348511;28;856;-80
2022/05/30 00:30:50;;;;;;;;;;;;;;;;;;348518;28;984;-80
2022/05/30 00:31:00;;;;;;;;;;;;;;;;;;348461;28;1042;-80
2022/05/30 00:31:12;;;;;;;;;;;;;;;;;;348566;28;892;-80
2022/05/30 00:31:22;;;;;;;;;;;;;;;;;;348560;28;900;-80
2022/05/30 00:31:35;;;;;;;;;;;;;;;;;;348450;28;944;-80
2022/05/30 00:31:45;;;;;;;;;;;;;;;;;;348540;28;975;-80
2022/05/30 00:31:55;;;;;;;;;;;;;;;;;;348500;28;837;-80
2022/05/30 00:32:06;;;;;;;;;;;;;;;;;;348426;28;916;-80
2022/05/30 00:32:16;;;;;;;;;;;;;;;;;;348521;28;924;-80
2022/05/30 00:32:26;;;;;;;;;;;;;;;;;;348465;28;1067;-80
2022/05/30 00:32:37;;;;;;;;;;;;;;;;;;348958;28;1403;-80
2022/05/30 00:32:47;;;;;;;;;;;;;;;;;;349846;28;925;-80
2022/05/30 00:32:57;;;;;;;;;;;;;;;;;;349856;28;853;-80
2022/05/30 00:33:07;;;;;;;;;;;;;;;;;;349891;28;886;-80
2022/05/30 00:33:18;;;;;;;;;;;;;;;;;;349861;28;929;-80
2022/05/30 00:33:28;;;;;;;;;;;;;;;;;;349933;28;901;-80
2022/05/30 00:33:40;;;;;;;;;;;;;;;;;;349917;28;956;-80
2022/05/30 00:33:50;;;;;;;;;;;;;;;;;;349710;28;1233;-79
2022/05/30 00:34:01;;;;;;;;;;;;;;;;;;349784;28;921;-80
2022/05/30 00:34:12;;;;;;;;;;;;;;;;;;349886;28;853;-80
2022/05/30 00:34:22;;;;;;;;;;;;;;;;;;349901;28;873;-80
2022/05/30 00:34:33;;;;;;;;;;;;;;;;;;349895;28;774;-80
2022/05/30 00:34:43;;;;;;;;;;;;;;;;;;349779;28;1146;-79
2022/05/30 00:34:54;;;;;;;;;;;;;;;;;;349901;28;814;-81
2022/05/30 00:35:04;;;;;;;;;;;;;;;;;;349867;28;928;-80
2022/05/30 00:35:14;;;;;;;;;;;;;;;;;;349874;28;936;-80
2022/05/30 00:35:25;;;;;;;;;;;;;;;;;;349877;28;1003;-80
2022/05/30 00:35:35;;;;;;;;;;;;;;;;;;349739;28;1331;-80
2022/05/30 00:35:46;;;;;;;;;;;;;;;;;;349910;28;920;-80
2022/05/30 00:35:56;;;;;;;;;;;;;;;;;;349601;28;1133;-80
2022/05/30 00:36:07;;;;;;;;;;;;;;;;;;349892;28;932;-80
2022/05/30 00:36:17;;;;;;;;;;;;;;;;;;349780;28;1299;-80
2022/05/30 00:36:27;;;;;;;;;;;;;;;;;;349993;28;798;-80
2022/05/30 00:36:38;;;;;;;;;;;;;;;;;;349672;28;1058;-80
2022/05/30 00:36:48;;;;;;;;;;;;;;;;;;349914;28;802;-80
2022/05/30 00:36:58;;;;;;;;;;;;;;;;;;349857;28;1008;-80
2022/05/30 00:37:09;;;;;;;;;;;;;;;;;;349912;28;972;-80
2022/05/30 00:37:19;;;;;;;;;;;;;;;;;;349866;28;944;-80
2022/05/30 00:37:29;;;;;;;;;;;;;;;;;;349901;28;991;-80
2022/05/30 00:37:39;;;;;;;;;;;;;;;;;;349962;28;806;-80
2022/05/30 00:37:50;;;;;;;;;;;;;;;;;;349924;28;858;-80
2022/05/30 00:38:00;;;;;;;;;;;;;;;;;;349844;28;917;-80
2022/05/30 00:38:10;;;;;;;;;;;;;;;;;;349885;28;999;-80
2022/05/30 00:38:21;;;;;;;;;;;;;;;;;;349867;28;967;-80
2022/05/30 00:38:31;;;;;;;;;;;;;;;;;;349930;28;798;-80
2022/05/30 00:38:41;;;;;;;;;;;;;;;;;;349875;28;960;-80
2022/05/30 00:38:51;;;;;;;;;;;;;;;;;;349942;28;818;-80
2022/05/30 00:39:01;;;;;;;;;;;;;;;;;;349867;28;917;-80
2022/05/30 00:39:12;;;;;;;;;;;;;;;;;;349920;28;901;-80
2022/05/30 00:39:22;;;;;;;;;;;;;;;;;;349295;28;1828;-80
2022/05/30 00:39:33;;;;;;;;;;;;;;;;;;348359;28;1482;-80
2022/05/30 00:39:43;;;;;;;;;;;;;;;;;;348525;28;1061;-80
2022/05/30 00:39:53;;;;;;;;;;;;;;;;;;348493;28;838;-80
2022/05/30 00:40:04;;;;;;;;;;;;;;;;;;348347;28;1089;-80
2022/05/30 00:40:15;;;;;;;;;;;;;;;;;;348532;28;968;-80
2022/05/30 00:40:25;;;;;;;;;;;;;;;;;;348562;28;1855;-80
2022/05/30 00:40:36;;;;;;;;;;;;;;;;;;348510;28;987;-80
2022/05/30 00:40:47;;;;;;;;;;;;;;;;;;348485;28;920;-80
2022/05/30 00:40:57;;;;;;;;;;;;;;;;;;348470;28;996;-80
2022/05/30 00:41:07;;;;;;;;;;;;;;;;;;348486;28;968;-80
2022/05/30 00:41:18;;;;;;;;;;;;;;;;;;348560;28;798;-80
2022/05/30 00:41:28;;;;;;;;;;;;;;;;;;348405;28;1886;-80
2022/05/30 00:41:38;;;;;;;;;;;;;;;;;;348545;28;975;-80
2022/05/30 00:41:48;;;;;;;;;;;;;;;;;;348364;28;1155;-80
2022/05/30 00:42:09;;;;;;;;;;;;;;;;;;348526;28;869;-80
2022/05/30 00:42:21;;;;;;;;;;;;;;;;;;348398;28;833;-80
2022/05/30 00:42:31;;;;;;;;;;;;;;;;;;348550;28;849;-80
2022/05/30 00:42:41;;;;;;;;;;;;;;;;;;348542;28;925;-80
2022/05/30 00:42:52;;;;;;;;;;;;;;;;;;348481;28;877;-80
2022/05/30 00:43:17;;;;;;;;;;;;;;;;;;348573;28;802;-80
2022/05/30 00:43:29;;;;;;;;;;;;;;;;;;348520;28;877;-80
2022/05/30 00:43:41;;;;;;;;;;;;;;;;;;348522;28;932;-80
2022/05/30 00:43:51;;;;;;;;;;;;;;;;;;348504;28;924;-80
2022/05/30 00:44:01;;;;;;;;;;;;;;;;;;348559;28;833;-80
2022/05/30 00:44:11;;;;;;;;;;;;;;;;;;348421;28;1027;-80
2022/05/30 00:44:22;;;;;;;;;;;;;;;;;;348557;28;841;-80
2022/05/30 00:44:33;;;;;;;;;;;;;;;;;;348538;28;920;-80
2022/05/30 00:44:44;;;;;;;;;;;;;;;;;;348535;28;793;-80
2022/05/30 00:44:54;;;;;;;;;;;;;;;;;;348521;28;912;-80
2022/05/30 00:45:05;;;;;;;;;;;;;;;;;;348472;28;972;-80
2022/05/30 00:45:15;;;;;;;;;;;;;;;;;;348483;28;920;-80
2022/05/30 00:45:26;;;;;;;;;;;;;;;;;;348541;28;912;-80
2022/05/30 00:45:36;;;;;;;;;;;;;;;;;;348467;28;917;-80
2022/05/30 00:45:46;;;;;;;;;;;;;;;;;;348571;28;928;-80
2022/05/30 00:45:58;;;;;;;;;;;;;;;;;;348530;28;960;-80
2022/05/30 00:46:12;;;;;;;;;;;;;;;;;;348602;28;836;-80
2022/05/30 00:46:23;;;;;;;;;;;;;;;;;;348479;28;947;-80
2022/05/30 00:46:33;;;;;;;;;;;;;;;;;;348545;28;941;-80
2022/05/30 00:46:43;;;;;;;;;;;;;;;;;;348510;28;944;-80
2022/05/30 00:46:53;;;;;;;;;;;;;;;;;;348524;28;991;-80
2022/05/30 00:47:04;;;;;;;;;;;;;;;;;;348472;28;905;-80
2022/05/30 00:47:15;;;;;;;;;;;;;;;;;;348490;28;1022;-80
2022/05/30 00:47:25;;;;;;;;;;;;;;;;;;348534;28;849;-80
2022/05/30 00:47:36;;;;;;;;;;;;;;;;;;348563;28;1015;-80
2022/05/30 00:47:47;;;;;;;;;;;;;;;;;;348496;28;979;-80
2022/05/30 00:47:57;;;;;;;;;;;;;;;;;;348549;28;975;-80
2022/05/30 00:48:07;;;;;;;;;;;;;;;;;;348534;28;1003;-80
2022/05/30 00:48:19;;;;;;;;;;;;;;;;;;348489;28;1003;-80
2022/05/30 00:48:31;;;;;;;;;;;;;;;;;;348457;28;1031;-80
2022/05/30 00:48:44;;;;;;;;;;;;;;;;;;348494;28;778;-80
2022/05/30 00:49:02;;;;;;;;;;;;;;;;;;348552;28;924;-80
2022/05/30 00:49:13;;;;;;;;;;;;;;;;;;348741;28;920;-80
2022/05/30 00:49:23;;;;;;;;;;;;;;;;;;348770;28;968;-80
2022/05/30 00:49:34;;;;;;;;;;;;;;;;;;348592;28;1105;-80
2022/05/30 00:49:45;;;;;;;;;;;;;;;;;;348756;28;991;-80
2022/05/30 00:49:56;;;;;;;;;;;;;;;;;;348759;28;865;-80
2022/05/30 00:50:07;;;;;;;;;;;;;;;;;;348749;28;975;-80
2022/05/30 00:50:18;;;;;;;;;;;;;;;;;;348313;28;1325;-80
2022/05/30 00:50:28;;;;;;;;;;;;;;;;;;348775;28;1022;-80
2022/05/30 00:50:39;;;;;;;;;;;;;;;;;;348723;28;865;-80
2022/05/30 00:50:51;;;;;;;;;;;;;;;;;;348754;28;849;-80
2022/05/30 00:51:07;;;;;;;;;;;;;;;;;;348760;28;1209;-80
2022/05/30 00:51:20;;;;;;;;;;;;;;;;;;348741;28;928;-80
2022/05/30 00:51:36;;;;;;;;;;;;;;;;;;348758;28;1147;-80
2022/05/30 00:51:48;;;;;;;;;;;;;;;;;;348668;28;1090;-80
2022/05/30 00:52:02;;;;;;;;;;;;;;;;;;348716;28;976;-80
2022/05/30 00:52:18;;;;;;;;;;;;;;;;;;348726;28;877;-80
2022/05/30 00:52:31;;;;;;;;;;;;;;;;;;348747;28;929;-80
2022/05/30 00:52:43;;;;;;;;;;;;;;;;;;348724;28;821;-80
2022/05/30 00:52:53;;;;;;;;;;;;;;;;;;348737;28;865;-80
2022/05/30 00:53:04;;;;;;;;;;;;;;;;;;348742;28;925;-80
2022/05/30 00:53:14;;;;;;;;;;;;;;;;;;348769;28;912;-80
2022/05/30 00:53:25;;;;;;;;;;;;;;;;;;348737;28;798;-80
2022/05/30 00:53:35;;;;;;;;;;;;;;;;;;348752;28;992;-80
2022/05/30 00:53:47;;;;;;;;;;;;;;;;;;348810;28;877;-80
2022/05/30 00:54:00;;;;;;;;;;;;;;;;;;348740;28;941;-80
2022/05/30 00:54:12;;;;;;;;;;;;;;;;;;348233;28;1769;-80
2022/05/30 00:54:26;;;;;;;;;;;;;;;;;;348710;28;941;-80
2022/05/30 00:54:43;;;;;;;;;;;;;;;;;;348777;28;940;-80
2022/05/30 00:54:55;;;;;;;;;;;;;;;;;;348707;28;853;-80
2022/05/30 00:55:06;;;;;;;;;;;;;;;;;;348718;28;1677;-80
2022/05/30 00:55:18;;;;;;;;;;;;;;;;;;349297;28;1568;-80
2022/05/30 00:55:28;;;;;;;;;;;;;;;;;;350155;28;1035;-80
2022/05/30 00:55:39;;;;;;;;;;;;;;;;;;350112;28;856;-79
2022/05/30 00:55:50;;;;;;;;;;;;;;;;;;350167;28;955;-80
2022/05/30 00:56:05;;;;;;;;;;;;;;;;;;350105;28;940;-80
2022/05/30 00:56:16;;;;;;;;;;;;;;;;;;350153;28;909;-80
2022/05/30 00:56:32;;;;;;;;;;;;;;;;;;350050;28;976;-80
2022/05/30 00:56:45;;;;;;;;;;;;;;;;;;350160;28;971;-80
2022/05/30 00:56:59;;;;;;;;;;;;;;;;;;350076;28;911;-80
2022/05/30 00:57:21;;;;;;;;;;;;;;;;;;349806;28;1599;-79
2022/05/30 00:57:32;;;;;;;;;;;;;;;;;;350141;28;955;-80
2022/05/30 00:57:43;;;;;;;;;;;;;;;;;;350093;28;1007;-80
2022/05/30 00:57:55;;;;;;;;;;;;;;;;;;350152;28;908;-80
2022/05/30 00:58:06;;;;;;;;;;;;;;;;;;350095;28;947;-80
2022/05/30 00:58:18;;;;;;;;;;;;;;;;;;350154;28;963;-80
2022/05/30 00:58:31;;;;;;;;;;;;;;;;;;348142;28;1804;-80
2022/05/30 00:58:45;;;;;;;;;;;;;;;;;;348753;28;932;-80
2022/05/30 00:58:55;;;;;;;;;;;;;;;;;;348753;28;958;-80
2022/05/30 00:59:05;;;;;;;;;;;;;;;;;;348722;28;940;-81
2022/05/30 00:59:16;;;;;;;;;;;;;;;;;;348732;28;932;-80
2022/05/30 00:59:27;;;;;;;;;;;;;;;;;;348718;28;952;-80
2022/05/30 00:59:37;;;;;;;;;;;;;;;;;;348738;28;983;-80
2022/05/30 00:59:55;;;;;;;;;;;;;;;;;;348552;28;1011;-80
2022/05/30 01:00:10;;;;;;;;;;;;;;;;;;348704;28;908;-80
2022/05/30 01:00:24;;;;;;;;;;;;;;;;;;348690;28;928;-80
2022/05/30 01:00:34;;;;;;;;;;;;;;;;;;348776;28;955;-80
2022/05/30 01:00:45;;;;;;;;;;;;;;;;;;348732;28;1213;-80
2022/05/30 01:00:55;;;;;;;;;;;;;;;;;;348684;28;1340;-80
2022/05/30 01:01:05;;;;;;;;;;;;;;;;;;348708;28;869;-80
2022/05/30 01:01:17;;;;;;;;;;;;;;;;;;348738;28;949;-80
2022/05/30 01:01:28;;;;;;;;;;;;;;;;;;348716;28;1975;-81
2022/05/30 01:01:39;;;;;;;;;;;;;;;;;;348790;28;859;-80
2022/05/30 01:01:49;;;;;;;;;;;;;;;;;;348763;28;849;-81
2022/05/30 01:01:59;;;;;;;;;;;;;;;;;;348811;28;916;-80
2022/05/30 01:02:09;;;;;;;;;;;;;;;;;;348741;28;956;-80
2022/05/30 01:02:21;;;;;;;;;;;;;;;;;;348795;28;848;-80
2022/05/30 01:02:32;;;;;;;;;;;;;;;;;;348754;28;853;-80
2022/05/30 01:02:43;;;;;;;;;;;;;;;;;;349518;28;1328;-80
2022/05/30 01:06:39;;;;;;;;;;;;;;;;;;345794;28;977;-80
2022/05/30 01:06:51;;;;;;;;;;;;;;;;;;345810;28;1076;-80
2022/05/30 01:07:01;;;;;;;;;;;;;;;;;;345771;28;1004;-80
2022/05/30 01:07:12;;;;;;;;;;;;;;;;;;345865;28;980;-80
2022/05/30 01:07:22;;;;;;;;;;;;;;;;;;345745;28;831;-80
2022/05/30 01:07:32;;;;;;;;;;;;;;;;;;345810;28;945;-81
2022/05/30 01:07:44;;;;;;;;;;;;;;;;;;345775;28;802;-80
2022/05/30 01:07:57;;;;;;;;;;;;;;;;;;345828;28;913;-80
2022/05/30 01:08:07;;;;;;;;;;;;;;;;;;345856;28;795;-80
2022/05/30 01:08:18;;;;;;;;;;;;;;;;;;345833;28;881;-80
2022/05/30 01:08:30;;;;;;;;;;;;;;;;;;346380;28;907;-80
2022/05/30 01:08:40;;;;;;;;;;;;;;;;;;348729;28;853;-80
2022/05/30 01:08:52;;;;;;;;;;;;;;;;;;348756;28;952;-81
2022/05/30 01:09:07;;;;;;;;;;;;;;;;;;348697;28;865;-80
2022/05/30 01:09:26;;;;;;;;;;;;;;;;;;348648;28;913;-80
2022/05/30 01:09:40;;;;;;;;;;;;;;;;;;348647;28;912;-80
2022/05/30 01:09:54;;;;;;;;;;;;;;;;;;348696;28;992;-80
2022/05/30 01:10:06;;;;;;;;;;;;;;;;;;348647;28;807;-80
2022/05/30 01:10:18;;;;;;;;;;;;;;;;;;348708;28;992;-80
2022/05/30 01:10:29;;;;;;;;;;;;;;;;;;348429;28;1391;-80
2022/05/30 01:10:39;;;;;;;;;;;;;;;;;;348730;28;972;-80
2022/05/30 01:10:49;;;;;;;;;;;;;;;;;;348669;28;849;-80
2022/05/30 01:10:59;;;;;;;;;;;;;;;;;;348712;28;1052;-80
2022/05/30 01:11:10;;;;;;;;;;;;;;;;;;348734;28;916;-80
2022/05/30 01:11:20;;;;;;;;;;;;;;;;;;348644;28;1060;-80
2022/05/30 01:12:08;;;;;;;;;;;;;;;;;;348662;28;973;-80
2022/05/30 01:12:33;;;;;;;;;;;;;;;;;;344465;28;873;-80
2022/05/30 01:12:49;;;;;;;;;;;;;;;;;;344463;28;957;-80
2022/05/30 01:12:59;;;;;;;;;;;;;;;;;;344495;28;941;-80
2022/05/30 01:13:10;;;;;;;;;;;;;;;;;;344453;28;909;-80
2022/05/30 01:13:21;;;;;;;;;;;;;;;;;;344456;28;906;-80
2022/05/30 01:13:31;;;;;;;;;;;;;;;;;;344443;28;918;-80
2022/05/30 01:13:41;;;;;;;;;;;;;;;;;;344475;28;941;-80
2022/05/30 01:13:51;;;;;;;;;;;;;;;;;;344380;28;966;-80
2022/05/30 01:14:02;;;;;;;;;;;;;;;;;;344475;28;957;-80
2022/05/30 01:14:12;;;;;;;;;;;;;;;;;;344476;28;910;-80
2022/05/30 01:14:24;;;;;;;;;;;;;;;;;;344469;28;977;-81
2022/05/30 01:14:36;;;;;;;;;;;;;;;;;;344469;28;882;-81
2022/05/30 01:14:48;;;;;;;;;;;;;;;;;;344441;28;953;-80
2022/05/30 01:14:58;;;;;;;;;;;;;;;;;;344455;28;933;-80
2022/05/30 01:15:13;;;;;;;;;;;;;;;;;;344517;28;913;-80
2022/05/30 01:15:28;;;;;;;;;;;;;;;;;;344431;28;933;-80
2022/05/30 01:15:38;;;;;;;;;;;;;;;;;;344439;28;929;-80
2022/05/30 01:15:49;;;;;;;;;;;;;;;;;;344370;28;917;-80
2022/05/30 01:15:59;;;;;;;;;;;;;;;;;;344462;28;1021;-80
2022/05/30 01:16:10;;;;;;;;;;;;;;;;;;344457;28;1009;-80
2022/05/30 01:16:22;;;;;;;;;;;;;;;;;;344455;28;894;-80
2022/05/30 01:16:32;;;;;;;;;;;;;;;;;;344465;28;929;-80
2022/05/30 01:16:42;;;;;;;;;;;;;;;;;;344517;28;831;-80
2022/05/30 01:16:52;;;;;;;;;;;;;;;;;;344421;28;976;-80
2022/05/30 01:17:05;;;;;;;;;;;;;;;;;;344353;28;1212;-80
2022/05/30 01:17:16;;;;;;;;;;;;;;;;;;344454;28;933;-80
2022/05/30 01:17:26;;;;;;;;;;;;;;;;;;344437;28;921;-80
2022/05/30 01:17:42;;;;;;;;;;;;;;;;;;344468;28;1021;-80
2022/05/30 01:18:01;;;;;;;;;;;;;;;;;;344365;28;869;-80
2022/05/30 01:18:30;;;;;;;;;;;;;;;;;;345051;28;1543;-80
2022/05/30 01:18:42;;;;;;;;;;;;;;;;;;348730;28;940;-79
2022/05/30 01:18:55;;;;;;;;;;;;;;;;;;348442;28;1110;-80
2022/05/30 01:19:10;;;;;;;;;;;;;;;;;;348757;28;821;-80
2022/05/30 01:19:39;;;;;;;;;;;;;;;;;;348663;28;1007;-80
2022/05/30 01:19:53;;;;;;;;;;;;;;;;;;348659;28;866;-80
2022/05/30 01:20:16;;;;;;;;;;;;;;;;;;348699;28;921;-80
2022/05/30 01:20:45;;;;;;;;;;;;;;;;;;348725;28;924;-80
2022/05/30 01:21:15;;;;;;;;;;;;;;;;;;348628;28;969;-80
2022/05/30 01:21:38;;;;;;;;;;;;;;;;;;348717;28;1906;-80
2022/05/30 01:21:48;;;;;;;;;;;;;;;;;;348754;28;830;-80
2022/05/30 01:22:14;;;;;;;;;;;;;;;;;;348688;28;865;-80
2022/05/30 01:22:43;;;;;;;;;;;;;;;;;;348679;28;971;-80
2022/05/30 01:23:01;;;;;;;;;;;;;;;;;;348733;28;901;-80
2022/05/30 01:23:21;;;;;;;;;;;;;;;;;;348707;28;972;-80
2022/05/30 01:23:48;;;;;;;;;;;;;;;;;;348718;28;976;-80
2022/05/30 01:24:04;;;;;;;;;;;;;;;;;;348644;28;857;-80
2022/05/30 01:24:23;;;;;;;;;;;;;;;;;;348728;28;814;-80
2022/05/30 01:24:37;;;;;;;;;;;;;;;;;;348961;28;1358;-80
2022/05/30 01:25:03;;;;;;;;;;;;;;;;;;348731;28;980;-80
2022/05/30 01:25:23;;;;;;;;;;;;;;;;;;348655;28;1640;-80
2022/05/30 01:25:55;;;;;;;;;;;;;;;;;;348713;28;1012;-80
2022/05/30 01:26:05;;;;;;;;;;;;;;;;;;348648;28;789;-80
2022/05/30 01:26:22;;;;;;;;;;;;;;;;;;348722;28;937;-80
2022/05/30 01:26:41;;;;;;;;;;;;;;;;;;348709;28;806;-80
2022/05/30 01:27:00;;;;;;;;;;;;;;;;;;348697;28;1000;-80
2022/05/30 01:27:34;;;;;;;;;;;;;;;;;;348746;28;940;-80
2022/05/30 01:27:48;;;;;;;;;;;;;;;;;;348695;28;1063;-80
2022/05/30 01:28:16;;;;;;;;;;;;;;;;;;348694;28;980;-80
2022/05/30 01:28:38;;;;;;;;;;;;;;;;;;348699;28;786;-80
2022/05/30 01:28:53;;;;;;;;;;;;;;;;;;348700;28;822;-80
2022/05/30 01:29:16;;;;;;;;;;;;;;;;;;348617;28;937;-80
2022/05/30 01:29:30;;;;;;;;;;;;;;;;;;349908;28;1501;-80
2022/05/30 01:29:43;;;;;;;;;;;;;;;;;;350033;28;861;-80
2022/05/30 01:29:56;;;;;;;;;;;;;;;;;;350102;28;806;-80